createdAt,value
2023-04-13T00:03:39.813Z,96.00
2023-04-13T00:08:46.779Z,96.02
2023-04-13T00:13:53.383Z,94.69
2023-04-13T00:18:58.947Z,94.28
2023-04-13T00:24:04.709Z,94.94
2023-04-13T00:29:10.190Z,95.40
2023-04-13T00:34:15.664Z,95.35
2023-04-13T00:39:23.241Z,95.84
2023-04-13T00:44:28.677Z,96.72
2023-04-13T00:49:34.804Z,98.16
2023-04-13T00:54:40.778Z,98.85
2023-04-13T00:59:57.202Z,99.43
2023-04-13T01:05:03.379Z,99.96
2023-04-13T01:10:17.276Z,100.00
2023-04-13T01:15:23.258Z,100.00
2023-04-13T01:20:33.010Z,100.00
2023-04-13T01:25:50.718Z,99.00
2023-04-13T01:31:00.330Z,99.63
2023-04-13T01:36:07.854Z,99.26
2023-04-13T01:41:13.879Z,99.14
2023-04-13T01:46:26.534Z,97.75
2023-04-13T01:51:51.496Z,98.27
2023-04-13T01:57:02.092Z,98.75
2023-04-13T02:02:07.957Z,98.15
2023-04-13T02:07:13.861Z,98.30
2023-04-13T02:12:24.399Z,98.51
2023-04-13T02:17:30.097Z,99.51
2023-04-13T02:22:35.693Z,98.77
2023-04-13T02:27:41.470Z,99.97
2023-04-13T02:32:49.644Z,99.99
2023-04-13T02:37:56.087Z,99.98
2023-04-13T02:43:01.550Z,100.00
2023-04-13T02:48:12.480Z,100.00
2023-04-13T02:53:18.452Z,100.00
2023-04-13T02:58:27.148Z,100.00
2023-04-13T03:03:38.010Z,100.00
2023-04-13T03:08:43.896Z,100.00
2023-04-13T03:13:54.867Z,100.00
2023-04-13T03:19:01.385Z,100.00
2023-04-13T03:24:08.741Z,100.00
2023-04-13T03:29:15.119Z,99.79
2023-04-13T03:34:22.838Z,99.01
2023-04-13T03:39:30.196Z,99.36
2023-04-13T03:44:36.643Z,99.93
2023-04-13T03:49:43.322Z,100.00
2023-04-13T03:54:49.100Z,100.00
2023-04-13T03:59:54.659Z,100.00
2023-04-13T04:05:08.429Z,100.00
2023-04-13T04:10:14.745Z,100.00
2023-04-13T04:15:20.740Z,100.00
2023-04-13T04:20:28.555Z,100.00
2023-04-13T04:25:34.488Z,100.00
2023-04-13T04:30:41.031Z,100.00
2023-04-13T04:35:51.365Z,100.00
2023-04-13T04:41:02.257Z,100.00
2023-04-13T04:46:09.047Z,100.00
2023-04-13T04:51:16.898Z,100.00
2023-04-13T04:56:24.028Z,100.00
2023-04-13T05:01:34.959Z,100.00
2023-04-13T05:06:45.301Z,100.00
2023-04-13T05:11:54.861Z,100.00
2023-04-13T05:17:02.011Z,100.00
2023-04-13T05:22:10.105Z,100.00
2023-04-13T05:27:20.062Z,100.00
2023-04-13T05:32:43.860Z,100.00
2023-04-13T05:37:50.124Z,97.82
2023-04-13T05:42:58.858Z,96.01
2023-04-13T05:48:07.232Z,94.94
2023-04-13T05:53:13.096Z,93.56
2023-04-13T05:58:33.504Z,92.66
2023-04-13T06:04:01.159Z,89.68
2023-04-13T06:09:08.919Z,87.60
2023-04-13T06:14:15.242Z,85.55
2023-04-13T06:19:21.526Z,74.82
2023-04-13T06:24:27.325Z,63.20
2023-04-13T06:29:33.233Z,54.34
2023-04-13T06:34:46.293Z,49.51
2023-04-13T06:39:53.526Z,44.34
2023-04-13T06:44:59.993Z,41.88
2023-04-13T06:50:11.541Z,38.19
2023-04-13T06:55:17.652Z,37.01
2023-04-13T07:00:30.195Z,34.15
2023-04-13T07:05:39.843Z,32.39
2023-04-13T07:10:54.435Z,31.01
2023-04-13T07:16:12.439Z,30.39
2023-04-13T07:21:21.820Z,29.49
2023-04-13T07:26:41.145Z,27.92
2023-04-13T07:31:47.915Z,26.43
2023-04-13T07:36:54.276Z,27.09
2023-04-13T07:42:01.722Z,25.70
2023-04-13T07:47:15.305Z,26.47
2023-04-13T07:52:22.484Z,26.27
2023-04-13T07:57:28.561Z,24.64
2023-04-13T08:02:38.807Z,24.78
2023-04-13T08:07:46.973Z,24.94
2023-04-13T08:12:53.681Z,24.71
2023-04-13T08:18:00.037Z,24.40
2023-04-13T08:23:06.543Z,24.15
2023-04-13T08:28:12.195Z,22.90
2023-04-13T08:33:19.459Z,23.51
2023-04-13T08:38:25.203Z,24.90
2023-04-13T08:43:32.974Z,24.91
2023-04-13T08:48:59.075Z,25.02
2023-04-13T08:54:14.898Z,25.90
2023-04-13T08:59:23.054Z,24.46
2023-04-13T09:04:35.648Z,23.95
2023-04-13T09:09:45.825Z,23.67
2023-04-13T09:14:51.448Z,24.50
2023-04-13T09:20:11.176Z,26.43
2023-04-13T09:25:25.726Z,28.19
2023-04-13T09:30:31.376Z,28.84
2023-04-13T09:35:37.888Z,28.30
2023-04-13T09:40:51.525Z,26.67
2023-04-13T09:45:57.020Z,25.54
2023-04-13T09:51:06.523Z,26.35
2023-04-13T09:56:12.235Z,25.68
2023-04-13T10:01:19.061Z,25.71
2023-04-13T10:06:24.890Z,24.90
2023-04-13T10:11:31.029Z,25.18
2023-04-13T10:16:59.141Z,25.49
2023-04-13T10:22:09.386Z,26.44
2023-04-13T10:27:18.816Z,27.52
2023-04-13T10:32:25.990Z,28.41
2023-04-13T10:37:31.662Z,30.63
2023-04-13T10:47:58.343Z,30.67
2023-04-13T10:53:05.565Z,30.10
2023-04-13T10:58:18.433Z,29.50
2023-04-13T11:03:28.577Z,29.21
2023-04-13T11:08:37.180Z,30.21
2023-04-13T11:13:48.380Z,30.64
2023-04-13T11:19:03.667Z,31.59
2023-04-13T11:24:10.232Z,32.75
2023-04-13T11:29:21.091Z,33.33
2023-04-13T11:34:28.804Z,34.41
2023-04-13T11:39:36.671Z,34.63
2023-04-13T11:44:45.675Z,34.35
2023-04-13T11:49:51.637Z,34.18
2023-04-13T11:55:00.658Z,34.68
2023-04-13T12:00:19.906Z,35.13
2023-04-13T12:05:27.456Z,35.37
2023-04-13T12:10:45.251Z,35.63
2023-04-13T12:16:06.052Z,35.82
2023-04-13T12:21:17.710Z,36.94
2023-04-13T12:27:16.385Z,38.08
2023-04-13T12:32:03.911Z,37.76
2023-04-13T12:37:11.549Z,37.81
2023-04-13T12:42:17.369Z,37.53
2023-04-13T12:47:24.598Z,38.46
2023-04-13T12:52:32.375Z,37.35
2023-04-13T12:57:39.810Z,36.12
2023-04-13T13:02:46.092Z,35.62
2023-04-13T13:07:52.027Z,36.05
2023-04-13T13:12:58.010Z,35.72
2023-04-13T13:18:06.838Z,34.91
2023-04-13T13:23:13.036Z,35.31
2023-04-13T13:28:18.739Z,35.19
2023-04-13T13:33:24.534Z,35.14
2023-04-13T13:38:29.951Z,35.23
2023-04-13T13:43:35.935Z,35.98
2023-04-13T13:48:42.304Z,36.35
2023-04-13T13:54:06.579Z,37.05
2023-04-13T13:59:12.881Z,37.68
2023-04-13T14:04:18.859Z,37.73
2023-04-13T14:09:25.462Z,37.64
2023-04-13T14:14:31.938Z,38.36
2023-04-13T14:19:37.433Z,38.86
2023-04-13T14:24:43.229Z,37.99
2023-04-13T14:29:48.574Z,37.44
2023-04-13T14:34:54.898Z,37.72
2023-04-13T14:40:00.682Z,37.97
2023-04-13T14:45:10.661Z,38.41
2023-04-13T14:50:17.085Z,38.89
2023-04-13T14:55:23.119Z,38.74
2023-04-13T15:00:41.222Z,39.03
2023-04-13T15:05:48.274Z,38.70
2023-04-13T15:10:57.713Z,38.38
2023-04-13T15:19:43.684Z,37.83
2023-04-13T15:24:49.247Z,37.19
2023-04-13T15:30:03.759Z,37.48
2023-04-13T15:35:12.783Z,37.29
2023-04-13T15:40:19.485Z,37.56
2023-04-13T15:45:25.057Z,38.32
2023-04-13T15:50:30.773Z,38.74
2023-04-13T15:55:36.228Z,38.86
2023-04-13T16:00:41.903Z,38.82
2023-04-13T16:05:50.203Z,38.56
2023-04-13T16:10:56.167Z,38.53
2023-04-13T16:16:01.554Z,38.68
2023-04-13T16:21:07.564Z,39.29
2023-04-13T16:26:13.094Z,40.91
2023-04-13T16:31:18.628Z,42.17
2023-04-13T16:36:24.455Z,42.88
2023-04-13T16:41:30.708Z,43.52
2023-04-13T16:46:36.470Z,44.17
2023-04-13T16:51:42.707Z,44.77
2023-04-13T16:56:48.910Z,45.08
2023-04-13T17:01:54.773Z,45.47
2023-04-13T17:07:02.577Z,46.10
2023-04-13T17:12:08.404Z,46.69
2023-04-13T17:17:14.488Z,47.10
2023-04-13T17:22:20.758Z,47.75
2023-04-13T17:27:27.283Z,48.39
2023-04-13T17:32:35.315Z,48.90
2023-04-13T17:37:41.579Z,49.39
2023-04-13T17:42:47.504Z,50.06
2023-04-13T17:47:53.429Z,50.53
2023-04-13T17:53:00.477Z,50.74
2023-04-13T17:58:06.448Z,51.49
2023-04-13T18:03:14.289Z,51.97
2023-04-13T18:08:20.462Z,52.56
2023-04-13T18:13:27.492Z,53.05
2023-04-13T18:18:33.356Z,53.71
2023-04-13T18:23:40.563Z,54.68
2023-04-13T18:28:46.800Z,55.70
2023-04-13T18:33:53.201Z,58.09
2023-04-13T18:38:58.848Z,59.35
2023-04-13T18:44:05.074Z,61.07
2023-04-13T18:49:11.667Z,62.67
2023-04-13T18:54:17.859Z,64.29
2023-04-13T18:59:23.392Z,65.60
2023-04-13T19:04:29.007Z,66.80
2023-04-13T19:09:36.787Z,67.99
2023-04-13T19:14:42.897Z,68.59
2023-04-13T19:19:48.770Z,69.69
2023-04-13T19:24:54.296Z,70.36
2023-04-13T19:29:59.962Z,71.86
2023-04-13T19:35:06.580Z,72.32
2023-04-13T19:40:14.114Z,72.09
2023-04-13T19:45:20.461Z,71.36
2023-04-13T19:50:26.001Z,71.32
2023-04-13T19:55:31.815Z,71.28
2023-04-13T20:00:38.469Z,71.34
2023-04-13T20:05:43.891Z,72.05
2023-04-13T20:10:50.258Z,73.01
2023-04-13T20:15:55.840Z,73.26
2023-04-13T20:21:01.687Z,74.06
2023-04-13T20:26:07.358Z,74.71
2023-04-13T20:31:12.839Z,75.08
2023-04-13T20:36:21.136Z,75.62
2023-04-13T20:41:27.207Z,76.98
2023-04-13T20:46:36.140Z,77.00
2023-04-13T20:51:42.256Z,77.46
2023-04-13T20:56:50.817Z,78.04
2023-04-13T21:01:56.256Z,78.64
2023-04-13T21:07:02.373Z,79.70
2023-04-13T21:12:08.241Z,80.68
2023-04-13T21:17:14.106Z,81.58
2023-04-13T21:22:19.702Z,82.21
2023-04-13T21:27:25.444Z,82.78
2023-04-13T21:32:30.986Z,83.65
2023-04-13T21:37:36.629Z,83.99
2023-04-13T21:42:43.161Z,84.52
2023-04-13T21:47:48.755Z,84.93
2023-04-13T21:52:54.116Z,84.46
2023-04-13T21:57:59.594Z,84.40
2023-04-13T22:03:05.231Z,85.18
2023-04-13T22:08:11.028Z,85.73
2023-04-13T22:13:16.526Z,86.46
2023-04-13T22:18:22.221Z,86.64
2023-04-13T22:23:27.722Z,86.61
2023-04-13T22:28:33.303Z,86.46
2023-04-13T22:33:40.482Z,86.53
2023-04-13T22:38:47.480Z,87.01
2023-04-13T22:43:52.803Z,87.40
2023-04-13T22:48:59.081Z,88.05
2023-04-13T22:54:04.989Z,88.21
2023-04-13T22:59:10.641Z,89.02
2023-04-13T23:04:16.542Z,89.33
2023-04-13T23:09:22.372Z,89.68
2023-04-13T23:14:27.834Z,89.88
2023-04-13T23:19:33.271Z,90.11
2023-04-13T23:24:39.024Z,90.44
2023-04-13T23:29:48.084Z,90.45
2023-04-13T23:34:54.513Z,90.55
2023-04-13T23:40:00.436Z,90.68
2023-04-13T23:45:07.558Z,91.87
2023-04-13T23:50:17.779Z,92.01
2023-04-13T23:55:23.243Z,91.97
